createdAt,value
2022-07-25T00:00:10.976Z,57.60
2022-07-25T00:05:18.104Z,60.82
2022-07-25T00:10:11.233Z,61.15
2022-07-25T00:15:11.241Z,61.27
2022-07-25T00:20:11.311Z,61.87
2022-07-25T00:25:11.403Z,62.30
2022-07-25T00:30:11.497Z,63.33
2022-07-25T00:35:11.607Z,63.63
2022-07-25T00:40:11.737Z,64.96
2022-07-25T00:45:11.817Z,63.76
2022-07-25T00:50:11.904Z,64.96
2022-07-25T00:55:12.046Z,64.59
2022-07-25T01:00:12.084Z,65.83
2022-07-25T01:05:12.201Z,66.63
2022-07-25T01:10:12.265Z,66.05
2022-07-25T01:15:12.390Z,66.22
2022-07-25T01:20:12.485Z,66.96
2022-07-25T01:25:12.592Z,65.75
2022-07-25T01:30:12.692Z,67.89
2022-07-25T01:35:12.812Z,67.59
2022-07-25T01:40:12.889Z,66.89
2022-07-25T01:45:12.936Z,67.99
2022-07-25T01:50:13.038Z,68.32
2022-07-25T01:55:13.122Z,67.72
2022-07-25T02:00:13.205Z,69.86
2022-07-25T02:05:13.283Z,68.85
2022-07-25T02:10:13.417Z,68.55
2022-07-25T02:15:13.551Z,69.86
2022-07-25T02:20:13.629Z,69.86
2022-07-25T02:25:13.723Z,71.00
2022-07-25T02:30:13.841Z,70.59
2022-07-25T02:35:13.949Z,70.50
2022-07-25T02:40:14.054Z,71.03
2022-07-25T02:45:14.157Z,71.13
2022-07-25T02:50:14.730Z,71.33
2022-07-25T02:55:14.357Z,69.62
2022-07-25T03:00:14.475Z,70.93
2022-07-25T03:05:14.583Z,70.83
2022-07-25T03:10:14.681Z,72.06
2022-07-25T03:15:14.787Z,71.66
2022-07-25T03:20:14.957Z,71.77
2022-07-25T03:25:15.355Z,72.30
2022-07-25T03:30:16.090Z,72.30
2022-07-25T03:35:15.123Z,74.71
2022-07-25T03:40:15.243Z,73.14
2022-07-25T03:45:15.350Z,73.04
2022-07-25T03:50:15.419Z,73.54
2022-07-25T03:55:15.504Z,74.15
2022-07-25T04:00:15.603Z,73.61
2022-07-25T04:05:15.637Z,74.35
2022-07-25T04:10:15.802Z,74.85
2022-07-25T04:15:23.372Z,74.44
2022-07-25T04:20:15.920Z,74.35
2022-07-25T04:25:16.024Z,73.94
2022-07-25T04:30:24.456Z,74.15
2022-07-25T04:35:17.332Z,75.55
2022-07-25T04:40:16.287Z,75.05
2022-07-25T04:45:17.806Z,76.65
2022-07-25T04:50:16.503Z,76.35
2022-07-25T04:55:16.647Z,76.76
2022-07-25T05:00:16.699Z,76.86
2022-07-25T05:05:21.586Z,76.62
2022-07-25T05:10:17.834Z,77.22
2022-07-25T05:15:16.963Z,77.02
2022-07-25T05:20:17.740Z,75.98
2022-07-25T05:25:17.109Z,73.44
2022-07-25T05:30:17.189Z,71.90
2022-07-25T05:35:17.270Z,70.96
2022-07-25T05:40:17.375Z,72.13
2022-07-25T05:45:17.456Z,71.03
2022-07-25T05:50:17.560Z,72.73
2022-07-25T05:55:17.629Z,71.03
2022-07-25T06:00:17.713Z,72.09
2022-07-25T06:05:17.807Z,70.59
2022-07-25T06:10:17.885Z,70.76
2022-07-25T06:15:22.916Z,71.19
2022-07-25T06:20:19.126Z,68.63
2022-07-25T06:25:18.159Z,68.63
2022-07-25T06:30:20.612Z,65.11
2022-07-25T06:35:18.348Z,57.71
2022-07-25T06:40:18.468Z,49.57
2022-07-25T06:45:18.683Z,48.30
2022-07-25T06:50:18.675Z,45.48
2022-07-25T06:55:18.732Z,45.61
2022-07-25T07:00:18.804Z,46.15
2022-07-25T07:05:18.862Z,46.54
2022-07-25T07:10:18.999Z,47.30
2022-07-25T07:15:19.045Z,46.56
2022-07-25T07:20:19.305Z,44.60
2022-07-25T07:25:19.647Z,47.11
2022-07-25T07:30:24.093Z,42.25
2022-07-25T07:35:20.469Z,41.60
2022-07-25T07:40:19.579Z,41.44
2022-07-25T07:45:19.700Z,42.22
2022-07-25T07:50:19.812Z,40.83
2022-07-25T07:55:19.825Z,38.23
2022-07-25T08:00:19.935Z,38.37
2022-07-25T08:05:20.198Z,39.75
2022-07-25T08:10:20.166Z,42.32
2022-07-25T08:15:20.153Z,42.27
2022-07-25T08:20:37.468Z,42.40
2022-07-25T08:25:21.403Z,39.69
2022-07-25T08:30:20.449Z,39.28
2022-07-25T08:35:20.526Z,37.14
2022-07-25T08:40:20.653Z,37.76
2022-07-25T08:45:20.709Z,35.77
2022-07-25T08:50:20.760Z,36.99
2022-07-25T08:55:20.893Z,36.25
2022-07-25T09:00:21.008Z,38.03
2022-07-25T09:05:21.145Z,40.72
2022-07-25T09:10:21.229Z,41.96
2022-07-25T09:15:21.278Z,40.74
2022-07-25T09:20:21.355Z,40.55
2022-07-25T09:25:21.400Z,38.69
2022-07-25T09:30:21.542Z,39.84
2022-07-25T09:35:21.654Z,41.17
2022-07-25T09:40:21.704Z,43.63
2022-07-25T09:45:21.740Z,39.53
2022-07-25T09:50:21.855Z,39.47
2022-07-25T09:55:21.965Z,43.61
2022-07-25T10:00:22.077Z,41.91
2022-07-25T10:05:22.183Z,43.32
2022-07-25T10:10:22.234Z,46.01
2022-07-25T10:15:22.297Z,40.45
2022-07-25T10:20:22.434Z,39.00
2022-07-25T10:25:22.513Z,38.82
2022-07-25T10:30:22.613Z,40.80
2022-07-25T10:35:22.723Z,41.02
2022-07-25T10:40:22.847Z,43.19
2022-07-25T10:45:22.908Z,37.62
2022-07-25T10:50:40.412Z,37.11
2022-07-25T10:55:24.057Z,40.72
2022-07-25T11:00:23.152Z,41.96
2022-07-25T11:05:23.272Z,43.19
2022-07-25T11:10:23.419Z,43.14
2022-07-25T11:15:23.449Z,44.98
2022-07-25T11:20:23.793Z,43.33
2022-07-25T11:25:23.635Z,44.73
2022-07-25T11:30:23.707Z,44.10
2022-07-25T11:35:23.882Z,44.57
2022-07-25T11:40:23.953Z,45.20
2022-07-25T11:45:23.976Z,51.52
2022-07-25T11:50:24.058Z,58.34
2022-07-25T11:55:24.164Z,66.52
2022-07-25T12:00:24.252Z,65.30
2022-07-25T12:05:24.331Z,61.72
2022-07-25T12:10:24.434Z,70.47
2022-07-25T12:15:24.542Z,74.22
2022-07-25T12:20:24.663Z,74.13
2022-07-25T12:25:30.468Z,72.02
2022-07-25T12:30:25.858Z,65.84
2022-07-25T12:35:24.995Z,64.57
2022-07-25T12:40:25.067Z,56.55
2022-07-25T12:45:25.189Z,58.67
2022-07-25T12:50:25.267Z,58.53
2022-07-25T12:55:25.390Z,54.03
2022-07-25T13:00:25.494Z,44.80
2022-07-25T13:05:25.564Z,45.26
2022-07-25T13:10:25.665Z,45.37
2022-07-25T13:15:25.798Z,45.42
2022-07-25T13:20:25.887Z,44.54
2022-07-25T13:25:25.987Z,45.59
2022-07-25T13:30:26.089Z,45.50
2022-07-25T13:35:32.673Z,42.95
2022-07-25T13:40:27.276Z,43.85
2022-07-25T13:45:26.406Z,43.02
2022-07-25T13:50:26.453Z,42.33
2022-07-25T13:55:26.589Z,43.43
2022-07-25T14:00:26.677Z,45.51
2022-07-25T14:05:26.797Z,46.77
2022-07-25T14:10:26.904Z,46.99
2022-07-25T14:15:27.011Z,48.16
2022-07-25T14:20:27.135Z,48.94
2022-07-25T14:25:27.215Z,50.46
2022-07-25T14:30:27.263Z,54.57
2022-07-25T14:35:32.155Z,60.11
2022-07-25T14:40:28.384Z,61.62
2022-07-25T14:45:27.493Z,63.23
2022-07-25T14:50:27.548Z,60.39
2022-07-25T14:55:27.659Z,59.60
2022-07-25T15:00:29.660Z,59.47
2022-07-25T15:05:27.851Z,58.70
2022-07-25T15:10:27.948Z,57.02
2022-07-25T15:15:28.035Z,57.45
2022-07-25T15:20:28.188Z,56.36
2022-07-25T15:26:00.011Z,57.28
2022-07-25T15:30:29.624Z,55.37
2022-07-25T15:35:28.442Z,55.19
2022-07-25T15:40:28.531Z,49.75
2022-07-25T15:45:33.314Z,49.01
2022-07-25T15:50:29.719Z,50.19
2022-07-25T15:55:28.795Z,50.34
2022-07-25T16:00:29.830Z,52.23
2022-07-25T16:05:29.006Z,51.18
2022-07-25T16:10:29.095Z,52.11
2022-07-25T16:15:29.150Z,51.75
2022-07-25T16:20:29.202Z,51.35
2022-07-25T16:25:29.523Z,51.15
2022-07-25T16:30:29.377Z,52.48
2022-07-25T16:35:29.475Z,53.15
2022-07-25T16:40:30.957Z,53.97
2022-07-25T16:45:29.650Z,55.70
2022-07-25T16:50:29.736Z,56.45
2022-07-25T16:55:29.824Z,57.50
2022-07-25T17:00:29.935Z,58.32
2022-07-25T17:05:30.026Z,58.72
2022-07-25T17:10:30.122Z,59.63
2022-07-25T17:15:30.277Z,63.90
2022-07-25T17:20:30.290Z,63.46
2022-07-25T17:25:30.387Z,63.86
2022-07-25T17:30:30.506Z,63.70
2022-07-25T17:35:30.572Z,62.77
2022-07-25T17:40:30.651Z,62.57
2022-07-25T17:45:30.757Z,61.98
2022-07-25T17:50:30.874Z,60.39
2022-07-25T17:55:33.256Z,61.65
2022-07-25T18:00:32.627Z,60.66
2022-07-25T18:05:31.129Z,60.39
2022-07-25T18:10:31.290Z,61.78
2022-07-25T18:15:31.393Z,60.28
2022-07-25T18:20:31.442Z,57.21
2022-07-25T18:25:32.172Z,54.40
2022-07-25T18:30:31.619Z,53.61
2022-07-25T18:35:31.709Z,52.51
2022-07-25T18:40:31.754Z,53.11
2022-07-25T18:45:31.859Z,53.53
2022-07-25T18:50:31.939Z,54.33
2022-07-25T18:55:32.002Z,53.56
2022-07-25T19:00:32.109Z,53.16
2022-07-25T19:05:32.267Z,55.57
2022-07-25T19:10:32.255Z,56.96
2022-07-25T19:15:32.439Z,57.69
2022-07-25T19:20:32.420Z,58.22
2022-07-25T19:25:32.518Z,58.71
2022-07-25T19:30:32.628Z,59.44
2022-07-25T19:35:32.715Z,59.34
2022-07-25T19:40:32.821Z,59.74
2022-07-25T19:45:32.891Z,60.36
2022-07-25T19:50:32.971Z,60.56
2022-07-25T19:55:33.104Z,60.79
2022-07-25T20:00:33.104Z,61.39
2022-07-25T20:05:33.227Z,62.81
2022-07-25T20:10:33.408Z,62.21
2022-07-25T20:15:33.401Z,61.94
2022-07-25T20:20:33.517Z,62.94
2022-07-25T20:25:33.651Z,63.37
2022-07-25T20:30:35.062Z,63.60
2022-07-25T20:35:34.228Z,64.10
2022-07-25T20:40:33.937Z,64.80
2022-07-25T20:45:34.094Z,65.23
2022-07-25T20:50:34.160Z,65.26
2022-07-25T20:55:34.292Z,65.49
2022-07-25T21:00:34.391Z,65.89
2022-07-25T21:05:34.461Z,65.99
2022-07-25T21:10:34.556Z,66.13
2022-07-25T21:15:34.698Z,65.95
2022-07-25T21:20:34.738Z,65.95
2022-07-25T21:25:34.849Z,64.86
2022-07-25T21:30:34.960Z,64.95
2022-07-25T21:35:50.518Z,64.78
2022-07-25T21:40:36.154Z,65.39
2022-07-25T21:45:35.265Z,63.89
2022-07-25T21:50:35.345Z,63.58
2022-07-25T21:55:36.428Z,65.09
2022-07-25T22:00:40.026Z,66.22
2022-07-25T22:05:36.594Z,66.62
2022-07-25T22:10:35.711Z,65.55
2022-07-25T22:15:35.838Z,65.95
2022-07-25T22:20:35.927Z,65.35
2022-07-25T22:25:36.039Z,66.35
2022-07-25T22:30:36.124Z,66.65
2022-07-25T22:35:36.206Z,66.25
2022-07-25T22:40:36.307Z,67.99
2022-07-25T22:45:41.213Z,69.62
2022-07-25T22:50:37.524Z,68.95
2022-07-25T22:55:36.610Z,69.56
2022-07-25T23:00:36.730Z,69.99
2022-07-25T23:05:40.446Z,68.55
2022-07-25T23:10:36.917Z,68.05
2022-07-25T23:15:49.960Z,67.75
2022-07-25T23:20:38.097Z,68.15
2022-07-25T23:25:37.178Z,67.48
2022-07-25T23:30:40.518Z,68.59
2022-07-25T23:35:37.345Z,68.38
2022-07-25T23:40:37.456Z,69.79
2022-07-25T23:45:37.567Z,69.22
2022-07-25T23:50:37.678Z,69.92
2022-07-25T23:55:37.773Z,69.62
